createdAt,value
2022-10-15T00:00:55.991Z,30.90
2022-10-15T00:03:23.791Z,31.00
2022-10-15T00:05:52.802Z,31.10
2022-10-15T00:08:20.455Z,31.10
2022-10-15T00:10:48.263Z,31.10
2022-10-15T00:13:15.887Z,31.20
2022-10-15T00:15:43.735Z,31.30
2022-10-15T00:18:11.618Z,31.30
2022-10-15T00:20:42.338Z,31.30
2022-10-15T00:23:11.338Z,31.40
2022-10-15T00:25:42.083Z,31.40
2022-10-15T00:28:09.789Z,31.50
2022-10-15T00:30:37.474Z,31.50
2022-10-15T00:33:05.236Z,31.50
2022-10-15T00:35:32.941Z,31.50
2022-10-15T00:38:00.663Z,31.60
2022-10-15T00:40:30.778Z,31.60
2022-10-15T00:42:58.506Z,31.60
2022-10-15T00:45:26.259Z,31.60
2022-10-15T00:47:54.030Z,31.70
2022-10-15T00:50:22.705Z,31.70
2022-10-15T00:52:58.580Z,31.70
2022-10-15T00:55:28.014Z,31.70
2022-10-15T00:57:57.357Z,31.70
2022-10-15T01:00:25.026Z,31.80
2022-10-15T01:02:52.680Z,31.80
2022-10-15T01:05:21.003Z,31.80
2022-10-15T01:07:48.636Z,31.80
2022-10-15T01:10:16.853Z,31.80
2022-10-15T01:13:02.133Z,31.80
2022-10-15T01:15:32.602Z,31.90
2022-10-15T01:18:00.879Z,31.90
2022-10-15T01:20:54.646Z,31.90
2022-10-15T01:23:49.179Z,31.90
2022-10-15T01:26:35.725Z,31.90
2022-10-15T01:29:07.901Z,32.00
2022-10-15T01:31:39.586Z,31.90
2022-10-15T01:34:09.732Z,31.90
2022-10-15T01:36:38.889Z,31.90
2022-10-15T01:39:09.727Z,31.90
2022-10-15T01:41:40.189Z,32.00
2022-10-15T01:44:09.903Z,32.00
2022-10-15T01:46:50.649Z,32.00
2022-10-15T01:49:22.501Z,32.00
2022-10-15T01:51:50.393Z,32.00
2022-10-15T01:54:19.139Z,32.00
2022-10-15T01:56:49.650Z,32.00
2022-10-15T01:59:20.602Z,32.00
2022-10-15T02:01:49.590Z,32.00
2022-10-15T02:04:21.760Z,32.00
2022-10-15T02:06:51.112Z,32.00
2022-10-15T02:09:22.334Z,32.00
2022-10-15T02:11:54.653Z,32.00
2022-10-15T02:14:26.242Z,32.00
2022-10-15T02:16:57.170Z,32.00
2022-10-15T02:19:27.602Z,31.90
2022-10-15T02:21:57.480Z,32.00
2022-10-15T02:24:26.373Z,31.90
2022-10-15T02:26:54.896Z,31.90
2022-10-15T02:29:23.490Z,31.90
2022-10-15T02:31:51.400Z,31.90
2022-10-15T02:34:21.902Z,31.80
2022-10-15T02:36:49.630Z,31.90
2022-10-15T02:39:18.862Z,31.80
2022-10-15T02:41:46.558Z,31.80
2022-10-15T02:44:14.473Z,31.80
2022-10-15T02:46:42.173Z,31.80
2022-10-15T02:49:11.476Z,31.80
2022-10-15T02:51:40.475Z,31.70
2022-10-15T02:54:08.490Z,31.70
2022-10-15T02:56:39.053Z,31.70
2022-10-15T02:59:07.047Z,31.70
2022-10-15T03:01:35.102Z,31.70
2022-10-15T03:04:04.096Z,31.60
2022-10-15T03:06:32.674Z,31.60
2022-10-15T03:09:01.980Z,31.60
2022-10-15T03:11:31.276Z,31.60
2022-10-15T03:13:58.990Z,31.60
2022-10-15T03:16:26.704Z,31.50
2022-10-15T03:18:54.395Z,31.50
2022-10-15T03:21:22.294Z,31.50
2022-10-15T03:23:50.684Z,31.50
2022-10-15T03:26:24.358Z,31.50
2022-10-15T03:28:52.082Z,31.50
2022-10-15T03:31:32.752Z,31.40
2022-10-15T03:34:03.247Z,31.40
2022-10-15T03:36:31.700Z,31.40
2022-10-15T03:39:00.359Z,31.40
2022-10-15T03:41:29.452Z,31.40
2022-10-15T03:44:01.735Z,31.40
2022-10-15T03:46:30.558Z,31.30
2022-10-15T03:49:00.416Z,31.30
2022-10-15T03:51:31.386Z,31.30
2022-10-15T03:54:06.654Z,31.20
2022-10-15T03:56:43.008Z,31.20
2022-10-15T03:59:23.886Z,31.20
2022-10-15T04:01:58.518Z,31.20
2022-10-15T04:04:26.692Z,31.20
2022-10-15T04:06:54.436Z,31.10
2022-10-15T04:09:22.423Z,31.20
2022-10-15T04:11:51.545Z,31.10
2022-10-15T04:14:20.151Z,31.10
2022-10-15T04:16:47.831Z,31.00
2022-10-15T04:19:20.360Z,31.00
2022-10-15T04:21:58.574Z,31.00
2022-10-15T04:24:46.904Z,31.00
2022-10-15T04:27:26.637Z,30.90
2022-10-15T04:30:00.548Z,31.00
2022-10-15T04:32:28.524Z,30.90
2022-10-15T04:34:56.946Z,30.90
2022-10-15T04:37:39.701Z,30.90
2022-10-15T04:40:09.009Z,30.90
2022-10-15T04:42:38.000Z,30.90
2022-10-15T04:45:06.828Z,30.90
2022-10-15T04:47:34.653Z,30.80
2022-10-15T04:50:16.363Z,30.80
2022-10-15T04:53:02.758Z,30.80
2022-10-15T04:55:35.060Z,30.80
2022-10-15T04:58:04.987Z,30.70
2022-10-15T05:00:33.850Z,30.70
2022-10-15T05:03:24.731Z,30.60
2022-10-15T05:06:02.691Z,30.60
2022-10-15T05:08:31.639Z,30.60
2022-10-15T05:11:16.970Z,30.60
2022-10-15T05:13:46.212Z,30.60
2022-10-15T05:16:16.025Z,30.50
2022-10-15T05:18:45.452Z,30.50
2022-10-15T05:21:13.490Z,30.50
2022-10-15T05:23:42.348Z,30.50
2022-10-15T05:26:19.613Z,30.50
2022-10-15T05:28:49.026Z,30.50
2022-10-15T05:31:26.880Z,30.40
2022-10-15T05:34:07.169Z,30.40
2022-10-15T05:36:39.026Z,30.40
2022-10-15T05:39:10.358Z,30.30
2022-10-15T05:41:42.423Z,30.30
2022-10-15T05:44:11.705Z,30.30
2022-10-15T05:46:39.381Z,30.30
2022-10-15T05:49:07.063Z,30.30
2022-10-15T05:51:47.070Z,30.30
2022-10-15T05:54:23.257Z,30.20
2022-10-15T05:56:50.933Z,30.20
2022-10-15T05:59:19.920Z,30.20
2022-10-15T06:01:47.604Z,30.20
2022-10-15T06:04:16.954Z,30.10
2022-10-15T06:06:44.917Z,30.10
2022-10-15T06:09:12.579Z,30.10
2022-10-15T06:11:40.236Z,30.10
2022-10-15T06:14:10.945Z,30.00
2022-10-15T06:16:39.928Z,30.00
2022-10-15T06:19:07.602Z,30.00
2022-10-15T06:21:35.241Z,29.90
2022-10-15T06:24:05.127Z,29.90
2022-10-15T06:26:35.371Z,29.90
2022-10-15T06:29:03.060Z,29.90
2022-10-15T06:31:30.758Z,29.90
2022-10-15T06:33:59.722Z,29.90
2022-10-15T06:36:27.386Z,29.90
2022-10-15T06:38:55.074Z,29.80
2022-10-15T06:41:22.738Z,29.80
2022-10-15T06:43:50.580Z,29.80
2022-10-15T06:46:18.212Z,29.80
2022-10-15T06:48:45.842Z,29.80
2022-10-15T06:51:14.805Z,29.80
2022-10-15T06:53:48.109Z,29.70
2022-10-15T06:56:15.751Z,29.60
2022-10-15T06:58:45.764Z,29.60
2022-10-15T07:01:13.402Z,29.60
2022-10-15T07:03:41.372Z,29.60
2022-10-15T07:06:09.563Z,29.60
2022-10-15T07:08:38.568Z,29.60
2022-10-15T07:11:07.071Z,29.60
2022-10-15T07:13:34.748Z,29.60
2022-10-15T07:16:05.760Z,29.50
2022-10-15T07:18:34.844Z,29.50
2022-10-15T07:21:02.665Z,29.50
2022-10-15T07:23:30.337Z,29.50
2022-10-15T07:25:59.658Z,29.50
2022-10-15T07:28:27.354Z,29.50
2022-10-15T07:30:55.016Z,29.50
2022-10-15T07:33:22.684Z,29.40
2022-10-15T07:35:59.998Z,29.40
2022-10-15T07:38:27.648Z,29.40
2022-10-15T07:40:59.908Z,29.40
2022-10-15T07:43:27.976Z,29.40
2022-10-15T07:45:55.730Z,29.40
2022-10-15T07:48:23.530Z,29.40
2022-10-15T07:50:55.283Z,29.40
2022-10-15T07:53:23.060Z,29.40
2022-10-15T07:55:55.140Z,29.30
2022-10-15T07:58:24.187Z,29.30
2022-10-15T08:00:51.818Z,29.30
2022-10-15T08:03:19.482Z,29.30
2022-10-15T08:05:47.184Z,29.30
2022-10-15T08:08:14.862Z,29.30
2022-10-15T08:10:42.578Z,29.30
2022-10-15T08:13:10.259Z,29.20
2022-10-15T08:15:41.146Z,29.20
2022-10-15T08:18:09.904Z,28.90
2022-10-15T08:20:37.615Z,28.80
2022-10-15T08:23:06.379Z,28.80
2022-10-15T08:25:34.138Z,28.80
2022-10-15T08:28:02.055Z,28.80
2022-10-15T08:30:29.737Z,28.80
2022-10-15T08:32:58.731Z,28.60
2022-10-15T08:35:26.718Z,28.50
2022-10-15T08:37:54.814Z,28.40
2022-10-15T08:40:22.531Z,28.40
2022-10-15T08:42:50.943Z,28.40
2022-10-15T08:45:20.283Z,28.50
2022-10-15T08:47:52.243Z,28.50
2022-10-15T08:50:26.798Z,28.60
2022-10-15T08:52:54.790Z,28.60
2022-10-15T08:57:57.826Z,28.40
2022-10-15T09:00:26.263Z,28.40
2022-10-15T09:02:58.522Z,28.30
2022-10-15T09:05:31.335Z,28.30
2022-10-15T09:08:01.902Z,28.40
2022-10-15T09:10:35.466Z,28.30
2022-10-15T09:13:04.480Z,27.90
2022-10-15T09:15:33.826Z,27.80
2022-10-15T09:18:01.516Z,27.90
2022-10-15T09:20:35.684Z,27.90
2022-10-15T09:23:03.354Z,27.90
2022-10-15T09:25:33.120Z,28.00
2022-10-15T09:28:02.634Z,28.00
2022-10-15T09:30:34.449Z,28.20
2022-10-15T09:33:05.968Z,28.10
2022-10-15T09:35:36.401Z,28.10
2022-10-15T09:38:14.689Z,28.20
2022-10-15T09:40:49.739Z,28.30
2022-10-15T09:43:17.692Z,28.30
2022-10-15T09:45:45.486Z,28.40
2022-10-15T09:48:16.312Z,28.50
2022-10-15T09:50:46.311Z,28.50
2022-10-15T09:53:18.740Z,28.40
2022-10-15T09:55:48.396Z,28.30
2022-10-15T09:58:18.003Z,28.30
2022-10-15T10:00:57.410Z,28.40
2022-10-15T10:03:26.217Z,28.50
2022-10-15T10:06:01.148Z,28.30
2022-10-15T10:08:30.461Z,28.40
2022-10-15T10:10:58.743Z,28.30
2022-10-15T10:13:28.798Z,28.30
2022-10-15T10:15:58.478Z,28.40
2022-10-15T10:18:27.336Z,28.50
2022-10-15T10:20:58.751Z,28.30
2022-10-15T10:23:31.903Z,28.30
2022-10-15T10:25:59.748Z,28.40
2022-10-15T10:28:29.034Z,28.50
2022-10-15T10:31:03.507Z,28.40
2022-10-15T10:33:32.656Z,28.50
2022-10-15T10:36:00.585Z,28.50
2022-10-15T10:38:30.776Z,28.40
2022-10-15T10:41:05.069Z,28.50
2022-10-15T10:43:38.195Z,28.50
2022-10-15T10:46:12.664Z,28.60
2022-10-15T10:48:44.522Z,28.70
2022-10-15T10:51:16.676Z,28.60
2022-10-15T10:53:54.033Z,28.60
2022-10-15T10:56:23.666Z,28.70
2022-10-15T10:58:56.302Z,28.50
2022-10-15T11:01:24.001Z,28.40
2022-10-15T11:03:51.815Z,28.40
2022-10-15T11:06:29.243Z,28.50
2022-10-15T11:09:06.907Z,28.50
2022-10-15T11:11:37.594Z,28.30
2022-10-15T11:14:09.111Z,28.40
2022-10-15T11:16:40.407Z,28.20
2022-10-15T11:19:25.433Z,28.20
2022-10-15T11:25:05.958Z,28.20
2022-10-15T11:27:44.560Z,28.20
2022-10-15T11:30:18.218Z,28.30
2022-10-15T11:33:06.887Z,28.40
2022-10-15T11:35:52.994Z,28.50
2022-10-15T11:38:26.316Z,28.60
2022-10-15T11:41:04.647Z,28.50
2022-10-15T11:43:42.519Z,28.50
2022-10-15T11:46:11.903Z,28.30
2022-10-15T11:48:45.211Z,28.40
2022-10-15T11:51:17.704Z,28.40
2022-10-15T11:54:09.968Z,28.30
2022-10-15T11:56:40.770Z,28.40
2022-10-15T11:59:19.781Z,28.40
2022-10-15T12:01:49.099Z,28.40
2022-10-15T12:04:18.751Z,28.40
2022-10-15T12:06:48.387Z,28.40
2022-10-15T12:09:27.646Z,28.50
2022-10-15T12:12:04.309Z,28.60
2022-10-15T12:14:35.128Z,28.60
2022-10-15T12:17:05.870Z,28.50
2022-10-15T12:19:37.392Z,28.50
2022-10-15T12:22:11.132Z,28.40
2022-10-15T12:24:52.302Z,28.60
2022-10-15T12:27:25.067Z,29.90
2022-10-15T12:29:53.944Z,30.00
2022-10-15T12:32:23.371Z,30.70
2022-10-15T12:34:55.434Z,30.90
2022-10-15T12:37:24.571Z,31.60
2022-10-15T12:39:55.936Z,31.50
2022-10-15T12:42:27.541Z,32.50
2022-10-15T12:44:55.358Z,32.70
2022-10-15T12:47:47.599Z,32.60
2022-10-15T12:50:18.819Z,31.90
2022-10-15T12:53:00.452Z,31.50
2022-10-15T12:55:33.173Z,31.60
2022-10-15T12:58:04.182Z,32.10
2022-10-15T13:00:42.788Z,32.20
2022-10-15T13:03:15.504Z,32.50
2022-10-15T13:05:43.254Z,32.40
2022-10-15T13:08:14.479Z,31.50
2022-10-15T13:10:46.537Z,30.60
2022-10-15T13:13:16.423Z,30.10
2022-10-15T13:15:44.120Z,29.70
2022-10-15T13:18:16.256Z,29.30
2022-10-15T13:20:45.037Z,29.20
2022-10-15T13:23:29.424Z,29.00
2022-10-15T13:26:17.941Z,28.90
2022-10-15T13:28:47.445Z,28.80
2022-10-15T13:31:18.928Z,28.70
2022-10-15T13:33:48.988Z,28.50
2022-10-15T13:36:20.102Z,28.50
2022-10-15T13:38:53.673Z,28.30
2022-10-15T13:41:27.712Z,28.20
2022-10-15T13:43:58.959Z,28.00
2022-10-15T13:46:27.032Z,28.00
2022-10-15T13:48:58.899Z,27.80
2022-10-15T13:51:30.252Z,27.60
2022-10-15T13:53:58.229Z,27.60
2022-10-15T13:56:27.574Z,27.60
2022-10-15T13:58:57.198Z,27.60
2022-10-15T14:01:25.259Z,27.60
2022-10-15T14:03:53.641Z,27.60
2022-10-15T14:06:22.216Z,27.70
2022-10-15T14:08:51.261Z,27.70
2022-10-15T14:11:19.172Z,27.70
2022-10-15T14:13:47.082Z,27.80
2022-10-15T14:16:19.225Z,27.80
2022-10-15T14:18:49.352Z,27.90
2022-10-15T14:21:18.802Z,28.00
2022-10-15T14:23:47.033Z,28.00
2022-10-15T14:26:15.211Z,28.00
2022-10-15T14:28:42.977Z,28.00
2022-10-15T14:31:10.924Z,28.00
2022-10-15T14:33:44.464Z,28.10
2022-10-15T14:36:14.300Z,28.30
2022-10-15T14:38:42.237Z,28.80
2022-10-15T14:41:23.933Z,29.30
2022-10-15T14:44:01.309Z,30.00
2022-10-15T14:46:30.377Z,30.20
2022-10-15T14:48:59.495Z,30.70
2022-10-15T14:51:27.172Z,30.80
2022-10-15T14:53:54.906Z,30.90
2022-10-15T14:56:24.176Z,31.00
2022-10-15T14:58:53.537Z,31.00
2022-10-15T15:01:21.587Z,31.00
2022-10-15T15:03:50.609Z,30.90
2022-10-15T15:06:19.767Z,30.70
2022-10-15T15:08:47.504Z,30.70
2022-10-15T15:11:16.310Z,30.40
2022-10-15T15:13:45.305Z,30.30
2022-10-15T15:16:13.111Z,30.10
2022-10-15T15:18:42.367Z,30.00
2022-10-15T15:21:12.517Z,29.90
2022-10-15T15:23:41.663Z,29.80
2022-10-15T15:26:09.428Z,29.60
2022-10-15T15:28:37.161Z,29.50
2022-10-15T15:31:06.893Z,29.40
2022-10-15T15:33:34.705Z,29.20
2022-10-15T15:36:03.034Z,29.00
2022-10-15T15:38:31.534Z,28.90
2022-10-15T15:41:04.477Z,28.70
2022-10-15T15:43:32.131Z,28.60
2022-10-15T15:45:59.809Z,28.40
2022-10-15T15:48:27.517Z,28.40
2022-10-15T15:50:55.399Z,28.30
2022-10-15T15:53:23.160Z,28.00
2022-10-15T15:55:50.933Z,27.80
2022-10-15T15:58:19.925Z,27.60
2022-10-15T16:00:47.695Z,27.50
2022-10-15T16:03:15.506Z,27.40
2022-10-15T16:05:43.243Z,27.30
2022-10-15T16:08:11.808Z,27.20
2022-10-15T16:10:39.533Z,27.20
2022-10-15T16:13:07.283Z,27.20
2022-10-15T16:15:36.285Z,27.20
2022-10-15T16:18:04.050Z,27.20
2022-10-15T16:20:32.047Z,27.20
2022-10-15T16:22:59.727Z,27.10
2022-10-15T16:25:29.946Z,27.10
2022-10-15T16:28:01.636Z,27.10
2022-10-15T16:30:29.349Z,27.10
2022-10-15T16:32:58.494Z,27.10
2022-10-15T16:35:26.212Z,27.10
2022-10-15T16:37:56.053Z,27.00
2022-10-15T16:40:25.027Z,27.00
2022-10-15T16:42:52.723Z,27.00
2022-10-15T16:45:20.459Z,27.00
2022-10-15T16:47:49.217Z,27.00
2022-10-15T16:50:18.329Z,27.00
2022-10-15T16:52:46.027Z,27.00
2022-10-15T16:55:13.862Z,26.90
2022-10-15T16:57:42.049Z,26.90
2022-10-15T17:00:11.036Z,26.90
2022-10-15T17:02:38.829Z,26.90
2022-10-15T17:05:07.528Z,26.80
2022-10-15T17:07:36.572Z,26.90
2022-10-15T17:10:04.666Z,26.80
2022-10-15T17:12:32.452Z,26.80
2022-10-15T17:15:00.186Z,26.80
2022-10-15T17:17:27.859Z,26.80
2022-10-15T17:19:55.568Z,26.80
2022-10-15T17:22:23.520Z,26.70
2022-10-15T17:24:52.789Z,26.70
2022-10-15T17:27:20.752Z,26.70
2022-10-15T17:29:48.738Z,26.70
2022-10-15T17:32:16.571Z,26.70
2022-10-15T17:34:44.335Z,26.60
2022-10-15T17:37:14.002Z,26.60
2022-10-15T17:39:41.860Z,26.60
2022-10-15T17:42:11.400Z,26.60
2022-10-15T17:44:39.107Z,26.60
2022-10-15T17:47:06.781Z,26.60
2022-10-15T17:49:34.508Z,26.60
2022-10-15T17:52:02.217Z,26.50
2022-10-15T17:54:30.569Z,26.50
2022-10-15T17:56:58.239Z,26.50
2022-10-15T17:59:27.224Z,26.50
2022-10-15T18:01:59.611Z,26.40
2022-10-15T18:04:28.281Z,26.40
2022-10-15T18:06:55.996Z,26.40
2022-10-15T18:09:26.933Z,26.40
2022-10-15T18:11:58.389Z,26.40
2022-10-15T18:14:32.730Z,26.40
2022-10-15T18:17:00.438Z,26.30
2022-10-15T18:19:28.161Z,26.30
2022-10-15T18:21:56.166Z,26.30
2022-10-15T18:24:24.241Z,26.30
2022-10-15T18:26:52.160Z,26.20
2022-10-15T18:29:19.830Z,26.20
2022-10-15T18:31:52.168Z,26.20
2022-10-15T18:34:22.548Z,26.20
2022-10-15T18:36:50.420Z,26.20
2022-10-15T18:39:18.061Z,26.20
2022-10-15T18:41:45.720Z,26.20
2022-10-15T18:44:15.665Z,26.20
2022-10-15T18:46:44.757Z,26.20
2022-10-15T18:49:14.311Z,26.20
2022-10-15T18:51:42.079Z,26.20
2022-10-15T18:54:10.665Z,26.10
2022-10-15T18:56:38.308Z,26.10
2022-10-15T18:59:06.022Z,26.10
2022-10-15T19:01:34.553Z,26.10
2022-10-15T19:04:02.934Z,26.10
2022-10-15T19:06:34.256Z,26.10
2022-10-15T19:09:02.352Z,26.10
2022-10-15T19:11:33.339Z,26.10
2022-10-15T19:14:03.114Z,26.10
2022-10-15T19:16:30.888Z,26.10
2022-10-15T19:19:03.018Z,26.00
2022-10-15T19:21:32.265Z,26.00
2022-10-15T19:24:00.120Z,26.00
2022-10-15T19:26:28.350Z,26.00
2022-10-15T19:28:56.720Z,26.00
2022-10-15T19:31:25.199Z,26.00
2022-10-15T19:33:52.916Z,26.00
2022-10-15T19:36:21.945Z,26.00
2022-10-15T19:38:50.982Z,26.00
2022-10-15T19:41:18.646Z,26.00
2022-10-15T19:43:46.461Z,26.00
2022-10-15T19:46:14.192Z,26.00
2022-10-15T19:48:42.495Z,26.00
2022-10-15T19:51:10.155Z,26.00
2022-10-15T19:53:37.861Z,25.90
2022-10-15T19:56:08.126Z,25.90
2022-10-15T19:58:35.988Z,25.90
2022-10-15T20:01:06.319Z,25.90
2022-10-15T20:06:05.976Z,25.90
2022-10-15T20:08:33.656Z,25.90
2022-10-15T20:11:01.299Z,25.90
2022-10-15T20:13:30.268Z,25.80
2022-10-15T20:16:02.890Z,25.80
2022-10-15T20:18:31.228Z,25.80
2022-10-15T20:20:58.883Z,25.80
2022-10-15T20:23:28.419Z,25.80
2022-10-15T20:25:56.064Z,25.80
2022-10-15T20:28:23.771Z,25.80
2022-10-15T20:33:27.880Z,25.80
2022-10-15T20:35:55.516Z,25.80
2022-10-15T20:38:23.169Z,25.80
2022-10-15T20:40:50.812Z,25.70
2022-10-15T20:43:18.459Z,25.70
2022-10-15T20:45:46.192Z,25.70
2022-10-15T20:48:17.015Z,25.70
2022-10-15T20:50:44.708Z,25.70
2022-10-15T20:53:12.363Z,25.70
2022-10-15T20:55:40.452Z,25.70
2022-10-15T20:58:08.260Z,25.70
2022-10-15T21:00:35.968Z,25.70
2022-10-15T21:03:03.700Z,25.70
2022-10-15T21:05:32.667Z,25.70
2022-10-15T21:08:00.538Z,25.70
2022-10-15T21:10:28.283Z,25.70
2022-10-15T21:12:55.975Z,25.70
2022-10-15T21:15:23.614Z,25.80
2022-10-15T21:17:51.255Z,25.70
2022-10-15T21:20:19.010Z,25.80
2022-10-15T21:22:48.029Z,25.80
2022-10-15T21:25:15.777Z,25.80
2022-10-15T21:27:43.482Z,25.80
2022-10-15T21:30:11.692Z,25.80
2022-10-15T21:32:39.363Z,25.80
2022-10-15T21:35:07.772Z,25.80
2022-10-15T21:37:35.788Z,25.80
2022-10-15T21:40:05.885Z,25.80
2022-10-15T21:42:33.532Z,25.90
2022-10-15T21:45:01.353Z,25.80
2022-10-15T21:47:29.207Z,25.80
2022-10-15T21:49:57.164Z,25.80
2022-10-15T21:52:24.884Z,25.90
2022-10-15T21:54:52.658Z,25.90
2022-10-15T21:57:21.637Z,25.90
2022-10-15T21:59:49.284Z,25.90
2022-10-15T22:02:16.990Z,26.00
2022-10-15T22:04:44.663Z,26.00
2022-10-15T22:07:12.374Z,26.00
2022-10-15T22:09:40.088Z,26.00
2022-10-15T22:12:07.814Z,26.10
2022-10-15T22:14:36.785Z,26.00
2022-10-15T22:17:04.738Z,26.10
2022-10-15T22:19:32.388Z,26.10
2022-10-15T22:22:00.098Z,26.10
2022-10-15T22:24:27.774Z,26.10
2022-10-15T22:26:55.512Z,26.20
2022-10-15T22:29:23.844Z,26.20
2022-10-15T22:31:52.957Z,26.20
2022-10-15T22:34:20.804Z,26.20
2022-10-15T22:36:48.565Z,26.20
2022-10-15T22:39:17.352Z,26.30
2022-10-15T22:41:45.660Z,26.20
2022-10-15T22:44:14.355Z,26.30
2022-10-15T22:46:45.912Z,26.30
2022-10-15T22:49:15.082Z,26.30
2022-10-15T22:51:42.948Z,26.30
2022-10-15T22:54:10.691Z,26.30
2022-10-15T22:56:38.392Z,26.40
2022-10-15T22:59:06.215Z,26.30
2022-10-15T23:01:34.112Z,26.40
2022-10-15T23:04:03.323Z,26.40
2022-10-15T23:06:32.702Z,26.40
2022-10-15T23:09:00.688Z,26.50
2022-10-15T23:11:29.747Z,26.50
2022-10-15T23:14:00.995Z,26.50
2022-10-15T23:16:29.812Z,26.50
2022-10-15T23:18:58.054Z,26.50
2022-10-15T23:21:33.345Z,26.60
2022-10-15T23:24:01.701Z,26.60
2022-10-15T23:29:02.996Z,26.70
2022-10-15T23:31:32.332Z,26.70
2022-10-15T23:34:00.244Z,26.70
2022-10-15T23:36:28.447Z,26.70
2022-10-15T23:38:58.608Z,26.70
2022-10-15T23:41:26.468Z,26.80
2022-10-15T23:43:54.149Z,26.80
2022-10-15T23:46:21.917Z,26.80
2022-10-15T23:48:49.594Z,26.90
2022-10-15T23:51:19.460Z,26.90
2022-10-15T23:53:47.146Z,26.90
2022-10-15T23:56:16.204Z,26.90
2022-10-15T23:58:44.000Z,26.90
